sensor_id;sensor_type;location;lat;lon;timestamp;P1;durP1;ratioP1;P2;durP2;ratioP2
68993;SDS011;56054;50.968;5.816;2022-11-25T00:01:04;13.50;;;1.70;;
68993;SDS011;56054;50.968;5.816;2022-11-25T00:04:47;11.83;;;1.30;;
68993;SDS011;56054;50.968;5.816;2022-11-25T00:07:53;13.47;;;2.07;;
68993;SDS011;56054;50.968;5.816;2022-11-25T00:11:01;13.80;;;1.20;;
68993;SDS011;56054;50.968;5.816;2022-11-25T00:14:11;9.03;;;1.77;;
68993;SDS011;56054;50.968;5.816;2022-11-25T00:17:20;9.63;;;1.70;;
68993;SDS011;56054;50.968;5.816;2022-11-25T00:20:26;10.33;;;1.10;;
68993;SDS011;56054;50.968;5.816;2022-11-25T00:23:34;17.20;;;1.93;;
68993;SDS011;56054;50.968;5.816;2022-11-25T00:26:42;7.53;;;1.43;;
68993;SDS011;56054;50.968;5.816;2022-11-25T00:29:57;13.27;;;1.73;;
68993;SDS011;56054;50.968;5.816;2022-11-25T00:33:05;9.17;;;1.50;;
68993;SDS011;56054;50.968;5.816;2022-11-25T00:36:14;16.70;;;2.00;;
68993;SDS011;56054;50.968;5.816;2022-11-25T00:39:41;10.23;;;1.30;;
68993;SDS011;56054;50.968;5.816;2022-11-25T00:42:48;12.87;;;1.53;;
68993;SDS011;56054;50.968;5.816;2022-11-25T00:45:56;11.77;;;1.43;;
68993;SDS011;56054;50.968;5.816;2022-11-25T00:49:03;15.90;;;2.07;;
68993;SDS011;56054;50.968;5.816;2022-11-25T00:52:13;8.27;;;1.30;;
68993;SDS011;56054;50.968;5.816;2022-11-25T00:55:23;12.60;;;1.60;;
68993;SDS011;56054;50.968;5.816;2022-11-25T00:58:39;9.30;;;1.80;;
68993;SDS011;56054;50.968;5.816;2022-11-25T01:01:50;10.33;;;1.17;;
68993;SDS011;56054;50.968;5.816;2022-11-25T01:04:57;12.60;;;2.00;;
68993;SDS011;56054;50.968;5.816;2022-11-25T01:08:22;6.60;;;1.40;;
68993;SDS011;56054;50.968;5.816;2022-11-25T01:11:37;8.93;;;1.37;;
68993;SDS011;56054;50.968;5.816;2022-11-25T01:14:49;9.00;;;1.70;;
68993;SDS011;56054;50.968;5.816;2022-11-25T01:17:56;7.97;;;1.50;;
68993;SDS011;56054;50.968;5.816;2022-11-25T01:21:13;13.10;;;1.60;;
68993;SDS011;56054;50.968;5.816;2022-11-25T01:24:22;10.70;;;1.40;;
68993;SDS011;56054;50.968;5.816;2022-11-25T01:27:34;9.77;;;1.47;;
68993;SDS011;56054;50.968;5.816;2022-11-25T01:30:40;13.83;;;1.53;;
68993;SDS011;56054;50.968;5.816;2022-11-25T01:33:51;10.33;;;1.70;;
68993;SDS011;56054;50.968;5.816;2022-11-25T01:37:04;9.57;;;1.60;;
68993;SDS011;56054;50.968;5.816;2022-11-25T01:40:11;15.93;;;1.90;;
68993;SDS011;56054;50.968;5.816;2022-11-25T01:43:18;9.63;;;1.90;;
68993;SDS011;56054;50.968;5.816;2022-11-25T01:46:25;12.63;;;1.77;;
68993;SDS011;56054;50.968;5.816;2022-11-25T01:49:57;10.00;;;1.43;;
68993;SDS011;56054;50.968;5.816;2022-11-25T01:53:09;7.17;;;1.33;;
68993;SDS011;56054;50.968;5.816;2022-11-25T01:56:20;8.83;;;1.00;;
68993;SDS011;56054;50.968;5.816;2022-11-25T01:59:27;9.03;;;1.17;;
68993;SDS011;56054;50.968;5.816;2022-11-25T02:02:39;12.57;;;1.47;;
68993;SDS011;56054;50.968;5.816;2022-11-25T02:09:33;11.73;;;2.10;;
68993;SDS011;56054;50.968;5.816;2022-11-25T02:12:48;10.90;;;1.20;;
68993;SDS011;56054;50.968;5.816;2022-11-25T02:15:57;10.27;;;1.47;;
68993;SDS011;56054;50.968;5.816;2022-11-25T02:19:04;9.50;;;1.47;;
68993;SDS011;56054;50.968;5.816;2022-11-25T02:26:18;8.27;;;1.60;;
68993;SDS011;56054;50.968;5.816;2022-11-25T02:29:26;8.73;;;1.30;;
68993;SDS011;56054;50.968;5.816;2022-11-25T02:32:34;6.77;;;1.37;;
68993;SDS011;56054;50.968;5.816;2022-11-25T02:38:58;10.43;;;1.53;;
68993;SDS011;56054;50.968;5.816;2022-11-25T02:42:07;14.03;;;1.37;;
68993;SDS011;56054;50.968;5.816;2022-11-25T02:45:49;19.60;;;1.93;;
68993;SDS011;56054;50.968;5.816;2022-11-25T02:49:10;8.53;;;1.77;;
68993;SDS011;56054;50.968;5.816;2022-11-25T02:52:26;8.30;;;1.50;;
68993;SDS011;56054;50.968;5.816;2022-11-25T02:55:33;10.00;;;1.33;;
68993;SDS011;56054;50.968;5.816;2022-11-25T02:58:40;9.73;;;1.90;;
68993;SDS011;56054;50.968;5.816;2022-11-25T03:06:00;9.70;;;1.60;;
68993;SDS011;56054;50.968;5.816;2022-11-25T03:09:07;8.70;;;2.37;;
68993;SDS011;56054;50.968;5.816;2022-11-25T03:12:14;12.60;;;2.20;;
68993;SDS011;56054;50.968;5.816;2022-11-25T03:15:21;9.23;;;1.47;;
68993;SDS011;56054;50.968;5.816;2022-11-25T03:18:28;9.47;;;1.50;;
68993;SDS011;56054;50.968;5.816;2022-11-25T03:21:35;9.83;;;1.50;;
68993;SDS011;56054;50.968;5.816;2022-11-25T03:24:45;6.67;;;1.63;;
68993;SDS011;56054;50.968;5.816;2022-11-25T03:27:53;11.83;;;2.53;;
68993;SDS011;56054;50.968;5.816;2022-11-25T03:31:03;18.27;;;2.20;;
68993;SDS011;56054;50.968;5.816;2022-11-25T03:34:10;7.37;;;1.40;;
68993;SDS011;56054;50.968;5.816;2022-11-25T03:37:17;7.40;;;1.53;;
68993;SDS011;56054;50.968;5.816;2022-11-25T03:40:24;10.90;;;1.70;;
68993;SDS011;56054;50.968;5.816;2022-11-25T03:43:32;10.67;;;1.67;;
68993;SDS011;56054;50.968;5.816;2022-11-25T03:46:39;9.63;;;1.87;;
68993;SDS011;56054;50.968;5.816;2022-11-25T03:49:47;15.27;;;1.67;;
68993;SDS011;56054;50.968;5.816;2022-11-25T03:52:54;12.33;;;1.90;;
68993;SDS011;56054;50.968;5.816;2022-11-25T03:56:01;10.37;;;1.77;;
68993;SDS011;56054;50.968;5.816;2022-11-25T03:59:08;8.03;;;1.07;;
68993;SDS011;56054;50.968;5.816;2022-11-25T04:02:16;8.17;;;1.40;;
68993;SDS011;56054;50.968;5.816;2022-11-25T04:05:24;13.30;;;1.60;;
68993;SDS011;56054;50.968;5.816;2022-11-25T04:08:34;4.57;;;1.27;;
68993;SDS011;56054;50.968;5.816;2022-11-25T04:11:43;5.87;;;1.43;;
68993;SDS011;56054;50.968;5.816;2022-11-25T04:14:53;9.90;;;1.60;;
68993;SDS011;56054;50.968;5.816;2022-11-25T04:18:00;8.50;;;1.50;;
68993;SDS011;56054;50.968;5.816;2022-11-25T04:21:07;7.10;;;1.40;;
68993;SDS011;56054;50.968;5.816;2022-11-25T04:24:14;6.60;;;1.57;;
68993;SDS011;56054;50.968;5.816;2022-11-25T04:27:21;7.83;;;1.60;;
68993;SDS011;56054;50.968;5.816;2022-11-25T04:30:28;5.13;;;1.90;;
68993;SDS011;56054;50.968;5.816;2022-11-25T04:33:36;10.50;;;1.63;;
68993;SDS011;56054;50.968;5.816;2022-11-25T04:36:44;7.27;;;1.40;;
68993;SDS011;56054;50.968;5.816;2022-11-25T04:39:51;17.47;;;2.03;;
68993;SDS011;56054;50.968;5.816;2022-11-25T04:42:58;21.80;;;2.10;;
68993;SDS011;56054;50.968;5.816;2022-11-25T04:46:08;9.23;;;2.10;;
68993;SDS011;56054;50.968;5.816;2022-11-25T04:49:22;9.60;;;1.43;;
68993;SDS011;56054;50.968;5.816;2022-11-25T04:52:30;14.10;;;2.33;;
68993;SDS011;56054;50.968;5.816;2022-11-25T04:55:37;17.07;;;2.20;;
68993;SDS011;56054;50.968;5.816;2022-11-25T04:58:50;11.90;;;1.90;;
68993;SDS011;56054;50.968;5.816;2022-11-25T05:02:00;12.57;;;2.10;;
68993;SDS011;56054;50.968;5.816;2022-11-25T05:05:10;10.83;;;1.90;;
68993;SDS011;56054;50.968;5.816;2022-11-25T05:08:18;8.00;;;1.60;;
68993;SDS011;56054;50.968;5.816;2022-11-25T05:11:25;10.17;;;1.80;;
68993;SDS011;56054;50.968;5.816;2022-11-25T05:14:34;5.37;;;1.50;;
68993;SDS011;56054;50.968;5.816;2022-11-25T05:17:43;10.90;;;2.07;;
68993;SDS011;56054;50.968;5.816;2022-11-25T05:21:02;8.93;;;1.70;;
68993;SDS011;56054;50.968;5.816;2022-11-25T05:24:14;10.73;;;1.47;;
68993;SDS011;56054;50.968;5.816;2022-11-25T05:27:24;9.23;;;1.90;;
68993;SDS011;56054;50.968;5.816;2022-11-25T05:30:37;10.87;;;1.70;;
68993;SDS011;56054;50.968;5.816;2022-11-25T05:33:44;8.77;;;1.60;;
68993;SDS011;56054;50.968;5.816;2022-11-25T05:36:51;11.63;;;1.87;;
68993;SDS011;56054;50.968;5.816;2022-11-25T05:39:59;13.03;;;1.77;;
68993;SDS011;56054;50.968;5.816;2022-11-25T05:43:25;11.10;;;1.63;;
68993;SDS011;56054;50.968;5.816;2022-11-25T05:46:34;7.97;;;1.70;;
68993;SDS011;56054;50.968;5.816;2022-11-25T05:49:42;10.80;;;1.40;;
68993;SDS011;56054;50.968;5.816;2022-11-25T05:52:49;8.83;;;1.37;;
68993;SDS011;56054;50.968;5.816;2022-11-25T05:55:59;10.87;;;1.40;;
68993;SDS011;56054;50.968;5.816;2022-11-25T05:59:49;8.13;;;1.50;;
68993;SDS011;56054;50.968;5.816;2022-11-25T06:03:15;8.63;;;1.83;;
68993;SDS011;56054;50.968;5.816;2022-11-25T06:06:22;6.73;;;2.03;;
68993;SDS011;56054;50.968;5.816;2022-11-25T06:09:29;11.47;;;1.53;;
68993;SDS011;56054;50.968;5.816;2022-11-25T06:12:36;7.47;;;1.67;;
68993;SDS011;56054;50.968;5.816;2022-11-25T06:15:43;7.90;;;1.50;;
68993;SDS011;56054;50.968;5.816;2022-11-25T06:18:52;9.67;;;1.43;;
68993;SDS011;56054;50.968;5.816;2022-11-25T06:22:00;15.73;;;1.60;;
68993;SDS011;56054;50.968;5.816;2022-11-25T06:25:08;6.43;;;1.47;;
68993;SDS011;56054;50.968;5.816;2022-11-25T06:28:16;10.67;;;1.40;;
68993;SDS011;56054;50.968;5.816;2022-11-25T06:31:25;14.10;;;1.87;;
68993;SDS011;56054;50.968;5.816;2022-11-25T06:34:57;8.80;;;1.47;;
68993;SDS011;56054;50.968;5.816;2022-11-25T06:38:21;7.17;;;1.63;;
68993;SDS011;56054;50.968;5.816;2022-11-25T06:41:28;9.50;;;1.40;;
68993;SDS011;56054;50.968;5.816;2022-11-25T06:44:35;8.70;;;1.60;;
68993;SDS011;56054;50.968;5.816;2022-11-25T06:47:42;7.77;;;1.80;;
68993;SDS011;56054;50.968;5.816;2022-11-25T06:50:56;8.77;;;1.80;;
68993;SDS011;56054;50.968;5.816;2022-11-25T06:54:04;10.93;;;1.67;;
68993;SDS011;56054;50.968;5.816;2022-11-25T06:57:11;9.80;;;1.60;;
68993;SDS011;56054;50.968;5.816;2022-11-25T07:00:22;11.40;;;1.77;;
68993;SDS011;56054;50.968;5.816;2022-11-25T07:03:29;10.03;;;1.33;;
68993;SDS011;56054;50.968;5.816;2022-11-25T07:06:36;11.37;;;1.53;;
68993;SDS011;56054;50.968;5.816;2022-11-25T07:09:43;8.20;;;1.70;;
68993;SDS011;56054;50.968;5.816;2022-11-25T07:12:52;10.00;;;1.63;;
68993;SDS011;56054;50.968;5.816;2022-11-25T07:15:59;10.57;;;1.97;;
68993;SDS011;56054;50.968;5.816;2022-11-25T07:19:13;8.23;;;1.97;;
68993;SDS011;56054;50.968;5.816;2022-11-25T07:22:22;7.10;;;1.70;;
68993;SDS011;56054;50.968;5.816;2022-11-25T07:25:29;8.40;;;2.10;;
68993;SDS011;56054;50.968;5.816;2022-11-25T07:28:36;9.70;;;1.83;;
68993;SDS011;56054;50.968;5.816;2022-11-25T07:31:44;12.50;;;2.50;;
68993;SDS011;56054;50.968;5.816;2022-11-25T07:34:51;13.50;;;2.27;;
68993;SDS011;56054;50.968;5.816;2022-11-25T07:37:59;8.47;;;2.07;;
68993;SDS011;56054;50.968;5.816;2022-11-25T07:41:07;7.17;;;1.50;;
68993;SDS011;56054;50.968;5.816;2022-11-25T07:44:19;6.83;;;1.60;;
68993;SDS011;56054;50.968;5.816;2022-11-25T07:47:33;8.73;;;1.73;;
68993;SDS011;56054;50.968;5.816;2022-11-25T07:50:43;9.57;;;2.57;;
68993;SDS011;56054;50.968;5.816;2022-11-25T07:53:54;14.27;;;2.40;;
68993;SDS011;56054;50.968;5.816;2022-11-25T07:57:03;12.33;;;2.30;;
68993;SDS011;56054;50.968;5.816;2022-11-25T08:00:10;9.40;;;2.27;;
68993;SDS011;56054;50.968;5.816;2022-11-25T08:03:18;15.70;;;2.50;;
68993;SDS011;56054;50.968;5.816;2022-11-25T08:06:26;12.80;;;3.17;;
68993;SDS011;56054;50.968;5.816;2022-11-25T08:09:34;12.77;;;2.63;;
68993;SDS011;56054;50.968;5.816;2022-11-25T08:12:44;8.10;;;2.53;;
68993;SDS011;56054;50.968;5.816;2022-11-25T08:15:51;9.53;;;2.77;;
68993;SDS011;56054;50.968;5.816;2022-11-25T08:19:00;8.40;;;2.50;;
68993;SDS011;56054;50.968;5.816;2022-11-25T08:22:09;15.23;;;2.90;;
68993;SDS011;56054;50.968;5.816;2022-11-25T08:25:16;13.17;;;2.60;;
68993;SDS011;56054;50.968;5.816;2022-11-25T08:28:23;14.53;;;2.63;;
68993;SDS011;56054;50.968;5.816;2022-11-25T08:31:34;11.97;;;2.43;;
68993;SDS011;56054;50.968;5.816;2022-11-25T08:34:45;10.13;;;2.40;;
68993;SDS011;56054;50.968;5.816;2022-11-25T08:37:54;14.60;;;3.03;;
68993;SDS011;56054;50.968;5.816;2022-11-25T08:41:14;5.63;;;1.97;;
68993;SDS011;56054;50.968;5.816;2022-11-25T08:48:46;10.77;;;2.37;;
68993;SDS011;56054;50.968;5.816;2022-11-25T08:51:56;10.20;;;2.23;;
68993;SDS011;56054;50.968;5.816;2022-11-25T08:55:03;11.67;;;2.47;;
68993;SDS011;56054;50.968;5.816;2022-11-25T08:58:19;11.00;;;2.60;;
68993;SDS011;56054;50.968;5.816;2022-11-25T09:01:34;18.47;;;2.90;;
68993;SDS011;56054;50.968;5.816;2022-11-25T09:04:44;12.57;;;2.63;;
68993;SDS011;56054;50.968;5.816;2022-11-25T09:07:58;18.87;;;2.87;;
68993;SDS011;56054;50.968;5.816;2022-11-25T09:11:05;12.63;;;2.73;;
68993;SDS011;56054;50.968;5.816;2022-11-25T09:14:15;15.17;;;3.43;;
68993;SDS011;56054;50.968;5.816;2022-11-25T09:17:22;10.00;;;2.60;;
68993;SDS011;56054;50.968;5.816;2022-11-25T09:20:30;17.37;;;3.13;;
68993;SDS011;56054;50.968;5.816;2022-11-25T09:23:38;13.10;;;2.33;;
68993;SDS011;56054;50.968;5.816;2022-11-25T09:26:45;13.97;;;2.40;;
68993;SDS011;56054;50.968;5.816;2022-11-25T09:29:53;23.00;;;4.07;;
68993;SDS011;56054;50.968;5.816;2022-11-25T09:33:00;9.23;;;2.70;;
68993;SDS011;56054;50.968;5.816;2022-11-25T09:36:08;18.83;;;3.00;;
68993;SDS011;56054;50.968;5.816;2022-11-25T09:39:33;16.43;;;3.03;;
68993;SDS011;56054;50.968;5.816;2022-11-25T09:42:54;14.27;;;2.57;;
68993;SDS011;56054;50.968;5.816;2022-11-25T09:46:17;16.10;;;2.37;;
68993;SDS011;56054;50.968;5.816;2022-11-25T09:56:58;13.20;;;2.77;;
68993;SDS011;56054;50.968;5.816;2022-11-25T10:15:20;22.73;;;2.90;;
68993;SDS011;56054;50.968;5.816;2022-11-25T10:18:36;11.13;;;3.53;;
68993;SDS011;56054;50.968;5.816;2022-11-25T10:21:57;17.63;;;2.60;;
68993;SDS011;56054;50.968;5.816;2022-11-25T10:25:18;9.47;;;2.27;;
68993;SDS011;56054;50.968;5.816;2022-11-25T10:28:31;10.40;;;1.80;;
68993;SDS011;56054;50.968;5.816;2022-11-25T10:31:41;12.30;;;2.30;;
68993;SDS011;56054;50.968;5.816;2022-11-25T10:35:19;14.17;;;2.87;;
68993;SDS011;56054;50.968;5.816;2022-11-25T10:38:44;7.63;;;2.70;;
68993;SDS011;56054;50.968;5.816;2022-11-25T10:42:18;14.13;;;2.07;;
68993;SDS011;56054;50.968;5.816;2022-11-25T10:45:30;20.50;;;2.57;;
68993;SDS011;56054;50.968;5.816;2022-11-25T10:52:05;12.80;;;2.60;;
68993;SDS011;56054;50.968;5.816;2022-11-25T10:59:41;9.07;;;2.33;;
68993;SDS011;56054;50.968;5.816;2022-11-25T11:03:14;14.53;;;2.30;;
68993;SDS011;56054;50.968;5.816;2022-11-25T11:06:37;11.60;;;2.63;;
68993;SDS011;56054;50.968;5.816;2022-11-25T11:09:46;16.93;;;2.83;;
68993;SDS011;56054;50.968;5.816;2022-11-25T11:12:57;13.57;;;2.33;;
68993;SDS011;56054;50.968;5.816;2022-11-25T11:19:37;13.47;;;2.70;;
68993;SDS011;56054;50.968;5.816;2022-11-25T11:22:45;15.97;;;2.17;;
68993;SDS011;56054;50.968;5.816;2022-11-25T11:26:10;14.30;;;2.13;;
68993;SDS011;56054;50.968;5.816;2022-11-25T11:29:48;19.97;;;2.33;;
68993;SDS011;56054;50.968;5.816;2022-11-25T11:34:02;12.17;;;2.03;;
68993;SDS011;56054;50.968;5.816;2022-11-25T11:37:41;13.90;;;2.43;;
68993;SDS011;56054;50.968;5.816;2022-11-25T11:44:57;8.80;;;2.83;;
68993;SDS011;56054;50.968;5.816;2022-11-25T11:54:57;10.13;;;1.70;;
68993;SDS011;56054;50.968;5.816;2022-11-25T12:05:43;9.53;;;2.00;;
68993;SDS011;56054;50.968;5.816;2022-11-25T12:08:56;12.60;;;1.70;;
68993;SDS011;56054;50.968;5.816;2022-11-25T12:12:39;10.80;;;1.60;;
68993;SDS011;56054;50.968;5.816;2022-11-25T12:16:03;8.80;;;2.13;;
68993;SDS011;56054;50.968;5.816;2022-11-25T12:19:26;11.23;;;2.13;;
68993;SDS011;56054;50.968;5.816;2022-11-25T12:23:39;10.23;;;1.80;;
68993;SDS011;56054;50.968;5.816;2022-11-25T12:27:08;11.67;;;1.80;;
68993;SDS011;56054;50.968;5.816;2022-11-25T12:30:21;11.20;;;2.27;;
68993;SDS011;56054;50.968;5.816;2022-11-25T12:37:26;11.90;;;2.47;;
68993;SDS011;56054;50.968;5.816;2022-11-25T12:44:48;9.10;;;1.80;;
68993;SDS011;56054;50.968;5.816;2022-11-25T12:47:55;6.30;;;1.80;;
68993;SDS011;56054;50.968;5.816;2022-11-25T12:54:52;9.63;;;2.13;;
68993;SDS011;56054;50.968;5.816;2022-11-25T12:58:38;12.53;;;1.97;;
68993;SDS011;56054;50.968;5.816;2022-11-25T13:16:38;4.43;;;1.17;;
68993;SDS011;56054;50.968;5.816;2022-11-25T13:19:46;9.03;;;1.50;;
68993;SDS011;56054;50.968;5.816;2022-11-25T13:32:50;9.63;;;1.47;;
68993;SDS011;56054;50.968;5.816;2022-11-25T13:35:58;7.43;;;1.20;;
68993;SDS011;56054;50.968;5.816;2022-11-25T13:39:10;7.13;;;1.73;;
68993;SDS011;56054;50.968;5.816;2022-11-25T13:42:25;4.63;;;1.93;;
68993;SDS011;56054;50.968;5.816;2022-11-25T13:46:04;8.43;;;1.83;;
68993;SDS011;56054;50.968;5.816;2022-11-25T13:49:20;5.57;;;1.47;;
68993;SDS011;56054;50.968;5.816;2022-11-25T13:52:45;7.63;;;1.10;;
68993;SDS011;56054;50.968;5.816;2022-11-25T13:59:58;8.63;;;1.30;;
68993;SDS011;56054;50.968;5.816;2022-11-25T14:09:59;5.43;;;0.90;;
68993;SDS011;56054;50.968;5.816;2022-11-25T14:24:14;7.00;;;1.10;;
68993;SDS011;56054;50.968;5.816;2022-11-25T14:27:33;5.07;;;1.00;;
68993;SDS011;56054;50.968;5.816;2022-11-25T14:30:42;7.40;;;1.30;;
68993;SDS011;56054;50.968;5.816;2022-11-25T14:33:54;7.13;;;1.37;;
68993;SDS011;56054;50.968;5.816;2022-11-25T14:40:41;11.87;;;1.30;;
68993;SDS011;56054;50.968;5.816;2022-11-25T14:43:57;12.97;;;1.10;;
68993;SDS011;56054;50.968;5.816;2022-11-25T14:47:10;5.13;;;1.00;;
68993;SDS011;56054;50.968;5.816;2022-11-25T14:50:17;11.23;;;1.20;;
68993;SDS011;56054;50.968;5.816;2022-11-25T14:53:26;8.30;;;1.30;;
68993;SDS011;56054;50.968;5.816;2022-11-25T14:56:39;4.67;;;1.20;;
68993;SDS011;56054;50.968;5.816;2022-11-25T14:59:49;5.27;;;1.10;;
68993;SDS011;56054;50.968;5.816;2022-11-25T15:02:58;8.30;;;1.50;;
68993;SDS011;56054;50.968;5.816;2022-11-25T15:06:12;8.37;;;2.00;;
68993;SDS011;56054;50.968;5.816;2022-11-25T15:09:22;13.13;;;1.87;;
68993;SDS011;56054;50.968;5.816;2022-11-25T15:12:33;4.87;;;1.30;;
68993;SDS011;56054;50.968;5.816;2022-11-25T15:15:42;11.60;;;1.80;;
68993;SDS011;56054;50.968;5.816;2022-11-25T15:18:58;8.80;;;1.50;;
68993;SDS011;56054;50.968;5.816;2022-11-25T15:22:14;9.20;;;1.73;;
68993;SDS011;56054;50.968;5.816;2022-11-25T15:25:25;6.63;;;1.20;;
68993;SDS011;56054;50.968;5.816;2022-11-25T15:28:34;5.60;;;1.20;;
68993;SDS011;56054;50.968;5.816;2022-11-25T15:31:44;13.03;;;1.70;;
68993;SDS011;56054;50.968;5.816;2022-11-25T15:34:58;5.93;;;1.30;;
68993;SDS011;56054;50.968;5.816;2022-11-25T15:41:50;8.40;;;1.60;;
68993;SDS011;56054;50.968;5.816;2022-11-25T15:45:00;8.10;;;1.53;;
68993;SDS011;56054;50.968;5.816;2022-11-25T15:48:23;15.60;;;2.03;;
68993;SDS011;56054;50.968;5.816;2022-11-25T15:51:39;7.17;;;1.60;;
68993;SDS011;56054;50.968;5.816;2022-11-25T15:54:54;11.00;;;2.17;;
68993;SDS011;56054;50.968;5.816;2022-11-25T15:58:11;8.27;;;2.00;;
68993;SDS011;56054;50.968;5.816;2022-11-25T16:01:37;13.27;;;1.63;;
68993;SDS011;56054;50.968;5.816;2022-11-25T16:04:49;9.40;;;1.70;;
68993;SDS011;56054;50.968;5.816;2022-11-25T16:11:09;8.80;;;1.77;;
68993;SDS011;56054;50.968;5.816;2022-11-25T16:14:48;9.23;;;1.57;;
68993;SDS011;56054;50.968;5.816;2022-11-25T16:17:55;11.57;;;2.10;;
68993;SDS011;56054;50.968;5.816;2022-11-25T16:21:09;12.10;;;2.00;;
68993;SDS011;56054;50.968;5.816;2022-11-25T16:24:24;7.83;;;1.83;;
68993;SDS011;56054;50.968;5.816;2022-11-25T16:27:37;11.13;;;2.17;;
68993;SDS011;56054;50.968;5.816;2022-11-25T16:31:18;16.57;;;2.20;;
68993;SDS011;56054;50.968;5.816;2022-11-25T16:34:29;11.90;;;2.10;;
68993;SDS011;56054;50.968;5.816;2022-11-25T16:38:21;10.93;;;1.93;;
68993;SDS011;56054;50.968;5.816;2022-11-25T16:41:57;16.13;;;2.03;;
68993;SDS011;56054;50.968;5.816;2022-11-25T16:45:24;14.10;;;2.43;;
68993;SDS011;56054;50.968;5.816;2022-11-25T16:48:46;13.90;;;2.43;;
68993;SDS011;56054;50.968;5.816;2022-11-25T16:51:53;14.53;;;2.17;;
68993;SDS011;56054;50.968;5.816;2022-11-25T16:55:09;11.33;;;2.30;;
68993;SDS011;56054;50.968;5.816;2022-11-25T16:58:24;11.13;;;1.73;;
68993;SDS011;56054;50.968;5.816;2022-11-25T17:01:40;14.80;;;2.40;;
68993;SDS011;56054;50.968;5.816;2022-11-25T17:04:48;11.03;;;2.20;;
68993;SDS011;56054;50.968;5.816;2022-11-25T17:07:55;11.13;;;2.23;;
68993;SDS011;56054;50.968;5.816;2022-11-25T17:11:02;15.37;;;2.40;;
68993;SDS011;56054;50.968;5.816;2022-11-25T17:14:19;9.43;;;2.00;;
68993;SDS011;56054;50.968;5.816;2022-11-25T17:17:45;15.60;;;2.20;;
68993;SDS011;56054;50.968;5.816;2022-11-25T17:20:53;7.90;;;1.63;;
68993;SDS011;56054;50.968;5.816;2022-11-25T17:24:00;13.23;;;2.80;;
68993;SDS011;56054;50.968;5.816;2022-11-25T17:27:19;7.20;;;1.70;;
68993;SDS011;56054;50.968;5.816;2022-11-25T17:30:39;12.67;;;2.07;;
68993;SDS011;56054;50.968;5.816;2022-11-25T17:33:46;13.47;;;2.77;;
68993;SDS011;56054;50.968;5.816;2022-11-25T17:36:55;12.80;;;2.33;;
68993;SDS011;56054;50.968;5.816;2022-11-25T17:40:02;15.53;;;2.60;;
68993;SDS011;56054;50.968;5.816;2022-11-25T17:43:19;13.77;;;3.35;;
68993;SDS011;56054;50.968;5.816;2022-11-25T17:46:26;16.07;;;2.90;;
68993;SDS011;56054;50.968;5.816;2022-11-25T17:49:33;11.63;;;2.07;;
68993;SDS011;56054;50.968;5.816;2022-11-25T17:52:40;7.27;;;1.80;;
68993;SDS011;56054;50.968;5.816;2022-11-25T17:55:47;11.43;;;2.70;;
68993;SDS011;56054;50.968;5.816;2022-11-25T17:59:03;14.50;;;2.40;;
68993;SDS011;56054;50.968;5.816;2022-11-25T18:02:16;12.27;;;2.50;;
68993;SDS011;56054;50.968;5.816;2022-11-25T18:05:24;12.13;;;2.37;;
68993;SDS011;56054;50.968;5.816;2022-11-25T18:08:33;8.33;;;2.10;;
68993;SDS011;56054;50.968;5.816;2022-11-25T18:11:44;11.57;;;2.67;;
68993;SDS011;56054;50.968;5.816;2022-11-25T18:14:54;8.90;;;2.27;;
68993;SDS011;56054;50.968;5.816;2022-11-25T18:18:28;10.10;;;2.30;;
68993;SDS011;56054;50.968;5.816;2022-11-25T18:21:43;14.57;;;2.60;;
68993;SDS011;56054;50.968;5.816;2022-11-25T18:24:50;7.33;;;2.13;;
68993;SDS011;56054;50.968;5.816;2022-11-25T18:27:59;10.77;;;3.50;;
68993;SDS011;56054;50.968;5.816;2022-11-25T18:31:09;18.80;;;2.93;;
68993;SDS011;56054;50.968;5.816;2022-11-25T18:34:18;13.07;;;3.30;;
68993;SDS011;56054;50.968;5.816;2022-11-25T18:37:29;17.20;;;2.70;;
68993;SDS011;56054;50.968;5.816;2022-11-25T18:40:37;11.87;;;2.70;;
68993;SDS011;56054;50.968;5.816;2022-11-25T18:43:46;11.67;;;2.70;;
68993;SDS011;56054;50.968;5.816;2022-11-25T18:46:53;16.27;;;3.07;;
68993;SDS011;56054;50.968;5.816;2022-11-25T18:50:01;12.43;;;3.03;;
68993;SDS011;56054;50.968;5.816;2022-11-25T18:53:08;18.27;;;2.90;;
68993;SDS011;56054;50.968;5.816;2022-11-25T18:56:28;11.43;;;2.67;;
68993;SDS011;56054;50.968;5.816;2022-11-25T18:59:35;18.50;;;2.97;;
68993;SDS011;56054;50.968;5.816;2022-11-25T19:03:20;17.53;;;2.70;;
68993;SDS011;56054;50.968;5.816;2022-11-25T19:06:29;17.17;;;2.30;;
68993;SDS011;56054;50.968;5.816;2022-11-25T19:10:01;21.70;;;3.13;;
68993;SDS011;56054;50.968;5.816;2022-11-25T19:13:26;14.73;;;2.67;;
68993;SDS011;56054;50.968;5.816;2022-11-25T19:16:36;21.80;;;2.97;;
68993;SDS011;56054;50.968;5.816;2022-11-25T19:20:18;15.23;;;2.43;;
68993;SDS011;56054;50.968;5.816;2022-11-25T19:23:26;21.33;;;2.93;;
68993;SDS011;56054;50.968;5.816;2022-11-25T19:26:34;18.80;;;2.90;;
68993;SDS011;56054;50.968;5.816;2022-11-25T19:29:47;16.13;;;2.80;;
68993;SDS011;56054;50.968;5.816;2022-11-25T19:33:00;18.47;;;3.13;;
68993;SDS011;56054;50.968;5.816;2022-11-25T19:36:20;23.03;;;3.97;;
68993;SDS011;56054;50.968;5.816;2022-11-25T19:39:38;18.20;;;3.83;;
68993;SDS011;56054;50.968;5.816;2022-11-25T19:42:48;10.73;;;2.97;;
68993;SDS011;56054;50.968;5.816;2022-11-25T19:45:56;17.00;;;3.73;;
68993;SDS011;56054;50.968;5.816;2022-11-25T19:49:08;13.90;;;4.10;;
68993;SDS011;56054;50.968;5.816;2022-11-25T19:52:32;16.90;;;4.63;;
68993;SDS011;56054;50.968;5.816;2022-11-25T19:55:43;16.07;;;3.23;;
68993;SDS011;56054;50.968;5.816;2022-11-25T19:58:52;16.10;;;3.73;;
68993;SDS011;56054;50.968;5.816;2022-11-25T20:02:25;15.60;;;3.50;;
68993;SDS011;56054;50.968;5.816;2022-11-25T20:05:34;17.40;;;3.90;;
68993;SDS011;56054;50.968;5.816;2022-11-25T20:08:43;16.10;;;3.87;;
68993;SDS011;56054;50.968;5.816;2022-11-25T20:11:53;16.60;;;3.73;;
68993;SDS011;56054;50.968;5.816;2022-11-25T20:15:00;17.87;;;3.97;;
68993;SDS011;56054;50.968;5.816;2022-11-25T20:18:09;22.47;;;4.57;;
68993;SDS011;56054;50.968;5.816;2022-11-25T20:21:33;16.10;;;4.53;;
68993;SDS011;56054;50.968;5.816;2022-11-25T20:24:51;20.70;;;5.10;;
68993;SDS011;56054;50.968;5.816;2022-11-25T20:28:00;23.80;;;5.53;;
68993;SDS011;56054;50.968;5.816;2022-11-25T20:31:15;23.80;;;5.17;;
68993;SDS011;56054;50.968;5.816;2022-11-25T20:34:22;17.17;;;5.87;;
68993;SDS011;56054;50.968;5.816;2022-11-25T20:37:29;21.83;;;5.27;;
68993;SDS011;56054;50.968;5.816;2022-11-25T20:40:38;23.97;;;4.80;;
68993;SDS011;56054;50.968;5.816;2022-11-25T20:43:48;12.60;;;4.53;;
68993;SDS011;56054;50.968;5.816;2022-11-25T20:46:55;13.00;;;4.47;;
68993;SDS011;56054;50.968;5.816;2022-11-25T20:50:02;21.17;;;5.30;;
68993;SDS011;56054;50.968;5.816;2022-11-25T20:53:12;22.43;;;4.93;;
68993;SDS011;56054;50.968;5.816;2022-11-25T20:56:21;20.50;;;5.33;;
68993;SDS011;56054;50.968;5.816;2022-11-25T20:59:29;21.27;;;4.90;;
68993;SDS011;56054;50.968;5.816;2022-11-25T21:02:36;17.67;;;4.50;;
68993;SDS011;56054;50.968;5.816;2022-11-25T21:05:48;21.97;;;4.67;;
68993;SDS011;56054;50.968;5.816;2022-11-25T21:08:57;24.53;;;5.37;;
68993;SDS011;56054;50.968;5.816;2022-11-25T21:12:13;19.03;;;4.67;;
68993;SDS011;56054;50.968;5.816;2022-11-25T21:15:22;13.93;;;4.10;;
68993;SDS011;56054;50.968;5.816;2022-11-25T21:18:37;25.00;;;4.90;;
68993;SDS011;56054;50.968;5.816;2022-11-25T21:21:46;15.40;;;4.93;;
68993;SDS011;56054;50.968;5.816;2022-11-25T21:24:55;20.70;;;5.20;;
68993;SDS011;56054;50.968;5.816;2022-11-25T21:28:02;18.23;;;6.27;;
68993;SDS011;56054;50.968;5.816;2022-11-25T21:31:12;21.90;;;5.87;;